sensor_id;sensor_type;location;lat;lon;timestamp;temperature;humidity
27188;DHT22;14708;50.872;5.306;2023-08-12T00:00:09;24.70;66.70
27188;DHT22;14708;50.872;5.306;2023-08-12T00:02:39;24.70;66.60
27188;DHT22;14708;50.872;5.306;2023-08-12T00:05:05;24.70;66.70
27188;DHT22;14708;50.872;5.306;2023-08-12T00:07:32;24.70;66.90
27188;DHT22;14708;50.872;5.306;2023-08-12T00:09:58;24.70;66.90
27188;DHT22;14708;50.872;5.306;2023-08-12T00:12:24;24.70;66.60
27188;DHT22;14708;50.872;5.306;2023-08-12T00:14:50;24.70;66.80
27188;DHT22;14708;50.872;5.306;2023-08-12T00:17:15;24.60;66.80
27188;DHT22;14708;50.872;5.306;2023-08-12T00:19:41;24.70;66.90
27188;DHT22;14708;50.872;5.306;2023-08-12T00:22:06;24.60;66.80
27188;DHT22;14708;50.872;5.306;2023-08-12T00:24:32;24.70;66.80
27188;DHT22;14708;50.872;5.306;2023-08-12T00:26:58;24.70;66.90
27188;DHT22;14708;50.872;5.306;2023-08-12T00:29:24;24.70;66.90
27188;DHT22;14708;50.872;5.306;2023-08-12T00:31:49;24.70;66.70
27188;DHT22;14708;50.872;5.306;2023-08-12T00:34:16;24.70;66.90
27188;DHT22;14708;50.872;5.306;2023-08-12T00:36:42;24.70;66.80
27188;DHT22;14708;50.872;5.306;2023-08-12T00:39:08;24.60;66.70
27188;DHT22;14708;50.872;5.306;2023-08-12T00:41:33;24.60;66.70
27188;DHT22;14708;50.872;5.306;2023-08-12T00:43:59;24.60;66.70
27188;DHT22;14708;50.872;5.306;2023-08-12T00:46:24;24.60;66.70
27188;DHT22;14708;50.872;5.306;2023-08-12T00:48:50;24.60;66.60
27188;DHT22;14708;50.872;5.306;2023-08-12T00:51:17;24.60;66.70
27188;DHT22;14708;50.872;5.306;2023-08-12T00:53:43;24.60;66.50
27188;DHT22;14708;50.872;5.306;2023-08-12T00:56:11;24.60;66.60
27188;DHT22;14708;50.872;5.306;2023-08-12T00:58:38;24.60;66.70
27188;DHT22;14708;50.872;5.306;2023-08-12T01:01:04;24.60;67.10
27188;DHT22;14708;50.872;5.306;2023-08-12T01:03:30;24.60;66.80
27188;DHT22;14708;50.872;5.306;2023-08-12T01:05:56;24.60;66.70
27188;DHT22;14708;50.872;5.306;2023-08-12T01:08:24;24.60;66.70
27188;DHT22;14708;50.872;5.306;2023-08-12T01:11:01;24.60;66.60
27188;DHT22;14708;50.872;5.306;2023-08-12T01:13:30;24.60;66.70
27188;DHT22;14708;50.872;5.306;2023-08-12T01:15:59;24.60;66.90
27188;DHT22;14708;50.872;5.306;2023-08-12T01:18:27;24.60;66.90
27188;DHT22;14708;50.872;5.306;2023-08-12T01:20:53;24.60;66.90
27188;DHT22;14708;50.872;5.306;2023-08-12T01:23:19;24.60;66.90
27188;DHT22;14708;50.872;5.306;2023-08-12T01:25:45;24.60;66.70
27188;DHT22;14708;50.872;5.306;2023-08-12T01:28:11;24.60;67.60
27188;DHT22;14708;50.872;5.306;2023-08-12T01:30:47;24.60;67.00
27188;DHT22;14708;50.872;5.306;2023-08-12T01:33:29;24.60;66.90
27188;DHT22;14708;50.872;5.306;2023-08-12T01:36:08;24.60;66.80
27188;DHT22;14708;50.872;5.306;2023-08-12T01:38:35;24.60;66.90
27188;DHT22;14708;50.872;5.306;2023-08-12T01:41:04;24.50;66.80
27188;DHT22;14708;50.872;5.306;2023-08-12T01:43:30;24.50;66.70
27188;DHT22;14708;50.872;5.306;2023-08-12T01:45:56;24.50;66.70
27188;DHT22;14708;50.872;5.306;2023-08-12T01:48:22;24.50;66.80
27188;DHT22;14708;50.872;5.306;2023-08-12T01:50:48;24.50;67.00
27188;DHT22;14708;50.872;5.306;2023-08-12T01:53:14;24.50;66.70
27188;DHT22;14708;50.872;5.306;2023-08-12T01:55:43;24.50;66.70
27188;DHT22;14708;50.872;5.306;2023-08-12T01:58:09;24.50;66.70
27188;DHT22;14708;50.872;5.306;2023-08-12T02:00:35;24.50;66.90
27188;DHT22;14708;50.872;5.306;2023-08-12T02:03:01;24.50;66.80
27188;DHT22;14708;50.872;5.306;2023-08-12T02:05:26;24.50;66.70
27188;DHT22;14708;50.872;5.306;2023-08-12T02:07:52;24.50;66.90
27188;DHT22;14708;50.872;5.306;2023-08-12T02:10:17;24.50;66.80
27188;DHT22;14708;50.872;5.306;2023-08-12T02:12:43;24.50;67.00
27188;DHT22;14708;50.872;5.306;2023-08-12T02:15:09;24.50;66.70
27188;DHT22;14708;50.872;5.306;2023-08-12T02:17:35;24.50;66.70
27188;DHT22;14708;50.872;5.306;2023-08-12T02:20:01;24.50;66.90
27188;DHT22;14708;50.872;5.306;2023-08-12T02:22:26;24.50;66.80
27188;DHT22;14708;50.872;5.306;2023-08-12T02:24:52;24.50;66.70
27188;DHT22;14708;50.872;5.306;2023-08-12T02:27:18;24.50;66.90
27188;DHT22;14708;50.872;5.306;2023-08-12T02:29:43;24.50;66.90
27188;DHT22;14708;50.872;5.306;2023-08-12T02:32:09;24.50;67.00
27188;DHT22;14708;50.872;5.306;2023-08-12T02:34:35;24.50;66.90
27188;DHT22;14708;50.872;5.306;2023-08-12T02:37:00;24.50;66.70
27188;DHT22;14708;50.872;5.306;2023-08-12T02:39:26;24.50;67.50
27188;DHT22;14708;50.872;5.306;2023-08-12T02:41:51;24.50;66.70
27188;DHT22;14708;50.872;5.306;2023-08-12T02:44:17;24.50;66.60
27188;DHT22;14708;50.872;5.306;2023-08-12T02:46:43;24.50;66.60
27188;DHT22;14708;50.872;5.306;2023-08-12T02:49:08;24.40;66.60
27188;DHT22;14708;50.872;5.306;2023-08-12T02:51:34;24.40;66.50
27188;DHT22;14708;50.872;5.306;2023-08-12T02:53:59;24.40;67.20
27188;DHT22;14708;50.872;5.306;2023-08-12T02:56:25;24.40;66.60
27188;DHT22;14708;50.872;5.306;2023-08-12T02:58:50;24.40;66.60
27188;DHT22;14708;50.872;5.306;2023-08-12T03:01:16;24.40;66.70
27188;DHT22;14708;50.872;5.306;2023-08-12T03:03:42;24.40;66.60
27188;DHT22;14708;50.872;5.306;2023-08-12T03:06:07;24.40;66.50
27188;DHT22;14708;50.872;5.306;2023-08-12T03:08:33;24.40;66.60
27188;DHT22;14708;50.872;5.306;2023-08-12T03:11:03;24.40;66.50
27188;DHT22;14708;50.872;5.306;2023-08-12T03:13:29;24.40;66.50
27188;DHT22;14708;50.872;5.306;2023-08-12T03:15:55;24.40;66.50
27188;DHT22;14708;50.872;5.306;2023-08-12T03:18:21;24.40;66.60
27188;DHT22;14708;50.872;5.306;2023-08-12T03:20:47;24.40;66.50
27188;DHT22;14708;50.872;5.306;2023-08-12T03:23:12;24.40;66.50
27188;DHT22;14708;50.872;5.306;2023-08-12T03:25:38;24.40;66.30
27188;DHT22;14708;50.872;5.306;2023-08-12T03:28:04;24.40;66.50
27188;DHT22;14708;50.872;5.306;2023-08-12T03:30:29;24.40;66.50
27188;DHT22;14708;50.872;5.306;2023-08-12T03:32:55;24.40;66.50
27188;DHT22;14708;50.872;5.306;2023-08-12T03:35:21;24.40;66.40
27188;DHT22;14708;50.872;5.306;2023-08-12T03:37:47;24.40;66.50
27188;DHT22;14708;50.872;5.306;2023-08-12T03:40:12;24.40;66.50
27188;DHT22;14708;50.872;5.306;2023-08-12T03:42:38;24.40;66.60
27188;DHT22;14708;50.872;5.306;2023-08-12T03:45:04;24.40;66.60
27188;DHT22;14708;50.872;5.306;2023-08-12T03:47:30;24.40;66.60
27188;DHT22;14708;50.872;5.306;2023-08-12T03:49:55;24.40;66.50
27188;DHT22;14708;50.872;5.306;2023-08-12T03:52:21;24.40;66.60
27188;DHT22;14708;50.872;5.306;2023-08-12T03:54:47;24.40;66.70
27188;DHT22;14708;50.872;5.306;2023-08-12T03:57:13;24.40;66.60
27188;DHT22;14708;50.872;5.306;2023-08-12T03:59:38;24.40;66.60
27188;DHT22;14708;50.872;5.306;2023-08-12T04:02:04;24.40;66.60
27188;DHT22;14708;50.872;5.306;2023-08-12T04:04:30;24.40;66.70
27188;DHT22;14708;50.872;5.306;2023-08-12T04:06:55;24.40;66.70
27188;DHT22;14708;50.872;5.306;2023-08-12T04:09:21;24.40;66.80
27188;DHT22;14708;50.872;5.306;2023-08-12T04:11:47;24.40;66.70
27188;DHT22;14708;50.872;5.306;2023-08-12T04:14:13;24.30;66.60
27188;DHT22;14708;50.872;5.306;2023-08-12T04:16:39;24.30;66.60
27188;DHT22;14708;50.872;5.306;2023-08-12T04:19:05;24.30;66.50
27188;DHT22;14708;50.872;5.306;2023-08-12T04:21:30;24.30;66.50
27188;DHT22;14708;50.872;5.306;2023-08-12T04:23:56;24.40;66.60
27188;DHT22;14708;50.872;5.306;2023-08-12T04:26:22;24.40;66.80
27188;DHT22;14708;50.872;5.306;2023-08-12T04:28:47;24.30;66.50
27188;DHT22;14708;50.872;5.306;2023-08-12T04:31:13;24.30;66.70
27188;DHT22;14708;50.872;5.306;2023-08-12T04:33:39;24.30;66.60
27188;DHT22;14708;50.872;5.306;2023-08-12T04:36:05;24.30;66.60
27188;DHT22;14708;50.872;5.306;2023-08-12T04:38:30;24.30;66.80
27188;DHT22;14708;50.872;5.306;2023-08-12T04:40:57;24.30;66.60
27188;DHT22;14708;50.872;5.306;2023-08-12T04:43:22;24.30;66.60
27188;DHT22;14708;50.872;5.306;2023-08-12T04:45:48;24.30;66.60
27188;DHT22;14708;50.872;5.306;2023-08-12T04:48:15;24.30;66.70
27188;DHT22;14708;50.872;5.306;2023-08-12T04:50:42;24.30;66.70
27188;DHT22;14708;50.872;5.306;2023-08-12T04:53:08;24.30;66.60
27188;DHT22;14708;50.872;5.306;2023-08-12T04:55:34;24.30;66.50
27188;DHT22;14708;50.872;5.306;2023-08-12T04:58:01;24.30;66.50
27188;DHT22;14708;50.872;5.306;2023-08-12T05:00:27;24.30;66.40
27188;DHT22;14708;50.872;5.306;2023-08-12T05:02:53;24.30;66.40
27188;DHT22;14708;50.872;5.306;2023-08-12T05:05:19;24.30;66.40
27188;DHT22;14708;50.872;5.306;2023-08-12T05:07:45;24.30;66.30
27188;DHT22;14708;50.872;5.306;2023-08-12T05:10:17;24.30;66.40
27188;DHT22;14708;50.872;5.306;2023-08-12T05:12:44;24.30;66.20
27188;DHT22;14708;50.872;5.306;2023-08-12T05:15:10;24.30;66.40
27188;DHT22;14708;50.872;5.306;2023-08-12T05:17:36;24.30;66.20
27188;DHT22;14708;50.872;5.306;2023-08-12T05:20:02;24.30;66.30
27188;DHT22;14708;50.872;5.306;2023-08-12T05:22:29;24.30;66.40
27188;DHT22;14708;50.872;5.306;2023-08-12T05:24:54;24.30;66.30
27188;DHT22;14708;50.872;5.306;2023-08-12T05:27:20;24.30;66.30
27188;DHT22;14708;50.872;5.306;2023-08-12T05:29:46;24.30;66.40
27188;DHT22;14708;50.872;5.306;2023-08-12T05:32:11;24.30;66.10
27188;DHT22;14708;50.872;5.306;2023-08-12T05:34:37;24.30;66.40
27188;DHT22;14708;50.872;5.306;2023-08-12T05:37:02;24.30;66.30
27188;DHT22;14708;50.872;5.306;2023-08-12T05:39:28;24.30;66.20
27188;DHT22;14708;50.872;5.306;2023-08-12T05:41:54;24.30;66.40
27188;DHT22;14708;50.872;5.306;2023-08-12T05:44:19;24.30;66.40
27188;DHT22;14708;50.872;5.306;2023-08-12T05:46:45;24.30;66.20
27188;DHT22;14708;50.872;5.306;2023-08-12T05:49:11;24.30;66.10
27188;DHT22;14708;50.872;5.306;2023-08-12T05:51:37;24.30;66.20
27188;DHT22;14708;50.872;5.306;2023-08-12T05:54:04;24.30;66.30
27188;DHT22;14708;50.872;5.306;2023-08-12T05:56:31;24.30;66.30
27188;DHT22;14708;50.872;5.306;2023-08-12T05:58:57;24.30;67.00
27188;DHT22;14708;50.872;5.306;2023-08-12T06:01:22;24.30;66.30
27188;DHT22;14708;50.872;5.306;2023-08-12T06:03:48;24.30;66.30
27188;DHT22;14708;50.872;5.306;2023-08-12T06:06:13;24.30;66.20
27188;DHT22;14708;50.872;5.306;2023-08-12T06:08:39;24.30;66.30
27188;DHT22;14708;50.872;5.306;2023-08-12T06:11:05;24.30;66.20
27188;DHT22;14708;50.872;5.306;2023-08-12T06:13:30;24.30;66.10
27188;DHT22;14708;50.872;5.306;2023-08-12T06:15:56;24.30;66.80
27188;DHT22;14708;50.872;5.306;2023-08-12T06:18:22;24.30;66.30
27188;DHT22;14708;50.872;5.306;2023-08-12T06:20:48;24.30;66.30
27188;DHT22;14708;50.872;5.306;2023-08-12T06:23:15;24.30;66.20
27188;DHT22;14708;50.872;5.306;2023-08-12T06:25:41;24.30;66.20
27188;DHT22;14708;50.872;5.306;2023-08-12T06:28:08;24.30;66.30
27188;DHT22;14708;50.872;5.306;2023-08-12T06:30:34;24.30;66.20
27188;DHT22;14708;50.872;5.306;2023-08-12T06:33:00;24.30;66.40
27188;DHT22;14708;50.872;5.306;2023-08-12T06:35:26;24.30;66.20
27188;DHT22;14708;50.872;5.306;2023-08-12T06:37:51;24.30;66.30
27188;DHT22;14708;50.872;5.306;2023-08-12T06:40:17;24.30;66.50
27188;DHT22;14708;50.872;5.306;2023-08-12T06:42:43;24.30;66.30
27188;DHT22;14708;50.872;5.306;2023-08-12T06:45:09;24.30;66.40
27188;DHT22;14708;50.872;5.306;2023-08-12T06:47:34;24.30;66.20
27188;DHT22;14708;50.872;5.306;2023-08-12T06:50:00;24.30;66.20
27188;DHT22;14708;50.872;5.306;2023-08-12T06:52:26;24.30;66.00
27188;DHT22;14708;50.872;5.306;2023-08-12T06:54:51;24.30;65.80
27188;DHT22;14708;50.872;5.306;2023-08-12T06:57:17;24.30;65.80
27188;DHT22;14708;50.872;5.306;2023-08-12T06:59:43;24.30;66.10
27188;DHT22;14708;50.872;5.306;2023-08-12T07:02:09;24.30;65.90
27188;DHT22;14708;50.872;5.306;2023-08-12T07:04:34;24.30;65.80
27188;DHT22;14708;50.872;5.306;2023-08-12T07:07:02;24.30;66.00
27188;DHT22;14708;50.872;5.306;2023-08-12T07:09:30;24.30;65.90
27188;DHT22;14708;50.872;5.306;2023-08-12T07:12:00;24.30;66.10
27188;DHT22;14708;50.872;5.306;2023-08-12T07:14:27;24.40;66.10
27188;DHT22;14708;50.872;5.306;2023-08-12T07:16:53;24.40;66.60
27188;DHT22;14708;50.872;5.306;2023-08-12T07:19:19;24.40;67.50
27188;DHT22;14708;50.872;5.306;2023-08-12T07:21:45;24.30;67.90
27188;DHT22;14708;50.872;5.306;2023-08-12T07:24:10;24.30;69.70
27188;DHT22;14708;50.872;5.306;2023-08-12T07:26:36;24.30;69.60
27188;DHT22;14708;50.872;5.306;2023-08-12T07:29:02;24.30;69.40
27188;DHT22;14708;50.872;5.306;2023-08-12T07:31:27;24.30;69.70
27188;DHT22;14708;50.872;5.306;2023-08-12T07:33:53;24.30;69.60
27188;DHT22;14708;50.872;5.306;2023-08-12T07:36:19;24.30;71.10
27188;DHT22;14708;50.872;5.306;2023-08-12T07:38:44;24.20;71.10
27188;DHT22;14708;50.872;5.306;2023-08-12T07:41:10;24.20;70.50
27188;DHT22;14708;50.872;5.306;2023-08-12T07:43:37;24.20;71.10
27188;DHT22;14708;50.872;5.306;2023-08-12T07:46:02;24.30;71.00
27188;DHT22;14708;50.872;5.306;2023-08-12T07:48:30;24.20;70.90
27188;DHT22;14708;50.872;5.306;2023-08-12T07:50:57;24.20;70.50
27188;DHT22;14708;50.872;5.306;2023-08-12T07:53:27;24.20;71.40
27188;DHT22;14708;50.872;5.306;2023-08-12T07:55:53;24.30;70.90
27188;DHT22;14708;50.872;5.306;2023-08-12T07:58:20;24.30;70.90
27188;DHT22;14708;50.872;5.306;2023-08-12T08:00:47;24.30;70.70
27188;DHT22;14708;50.872;5.306;2023-08-12T08:03:12;24.40;71.00
27188;DHT22;14708;50.872;5.306;2023-08-12T08:05:41;24.40;70.70
27188;DHT22;14708;50.872;5.306;2023-08-12T08:08:07;24.40;71.90
27188;DHT22;14708;50.872;5.306;2023-08-12T08:10:33;24.40;72.20
27188;DHT22;14708;50.872;5.306;2023-08-12T08:12:59;24.40;71.80
27188;DHT22;14708;50.872;5.306;2023-08-12T08:15:24;24.30;71.50
27188;DHT22;14708;50.872;5.306;2023-08-12T08:17:50;24.30;71.50
27188;DHT22;14708;50.872;5.306;2023-08-12T08:20:16;24.30;72.50
27188;DHT22;14708;50.872;5.306;2023-08-12T08:22:41;24.30;72.40
27188;DHT22;14708;50.872;5.306;2023-08-12T08:25:07;24.30;73.30
27188;DHT22;14708;50.872;5.306;2023-08-12T08:27:33;24.30;73.90
27188;DHT22;14708;50.872;5.306;2023-08-12T08:29:58;24.30;73.70
27188;DHT22;14708;50.872;5.306;2023-08-12T08:32:24;24.30;72.70
27188;DHT22;14708;50.872;5.306;2023-08-12T08:34:51;24.30;73.30
27188;DHT22;14708;50.872;5.306;2023-08-12T08:37:16;24.30;73.20
27188;DHT22;14708;50.872;5.306;2023-08-12T08:39:42;24.30;73.30
27188;DHT22;14708;50.872;5.306;2023-08-12T08:42:09;24.30;73.40
27188;DHT22;14708;50.872;5.306;2023-08-12T08:44:37;24.40;73.90
27188;DHT22;14708;50.872;5.306;2023-08-12T08:47:10;24.40;73.30
27188;DHT22;14708;50.872;5.306;2023-08-12T08:49:36;24.40;73.10
27188;DHT22;14708;50.872;5.306;2023-08-12T08:52:03;24.40;73.20
27188;DHT22;14708;50.872;5.306;2023-08-12T08:54:28;24.40;73.70
27188;DHT22;14708;50.872;5.306;2023-08-12T08:56:54;24.40;74.60
27188;DHT22;14708;50.872;5.306;2023-08-12T08:59:20;24.40;74.60
27188;DHT22;14708;50.872;5.306;2023-08-12T09:01:49;24.40;74.00
27188;DHT22;14708;50.872;5.306;2023-08-12T09:04:17;24.40;74.10
27188;DHT22;14708;50.872;5.306;2023-08-12T09:06:44;24.40;74.90
27188;DHT22;14708;50.872;5.306;2023-08-12T09:09:13;24.40;75.50
27188;DHT22;14708;50.872;5.306;2023-08-12T09:11:40;24.50;75.40
27188;DHT22;14708;50.872;5.306;2023-08-12T09:14:10;24.50;74.80
27188;DHT22;14708;50.872;5.306;2023-08-12T09:16:36;24.40;75.00
27188;DHT22;14708;50.872;5.306;2023-08-12T09:19:03;24.30;75.30
27188;DHT22;14708;50.872;5.306;2023-08-12T09:21:28;24.40;74.70
27188;DHT22;14708;50.872;5.306;2023-08-12T09:23:55;24.40;76.20
27188;DHT22;14708;50.872;5.306;2023-08-12T09:26:21;24.30;76.00
27188;DHT22;14708;50.872;5.306;2023-08-12T09:28:48;24.30;76.40
27188;DHT22;14708;50.872;5.306;2023-08-12T09:31:27;24.30;76.10
27188;DHT22;14708;50.872;5.306;2023-08-12T09:33:58;24.30;76.50
27188;DHT22;14708;50.872;5.306;2023-08-12T09:36:25;24.40;76.60
27188;DHT22;14708;50.872;5.306;2023-08-12T09:38:52;24.40;76.60
27188;DHT22;14708;50.872;5.306;2023-08-12T09:41:18;24.40;76.20
27188;DHT22;14708;50.872;5.306;2023-08-12T09:43:44;24.40;76.10
27188;DHT22;14708;50.872;5.306;2023-08-12T09:46:11;24.50;76.40
27188;DHT22;14708;50.872;5.306;2023-08-12T09:48:38;24.40;76.00
27188;DHT22;14708;50.872;5.306;2023-08-12T09:51:04;24.40;76.80
27188;DHT22;14708;50.872;5.306;2023-08-12T09:53:30;24.40;76.00
27188;DHT22;14708;50.872;5.306;2023-08-12T09:55:57;24.40;76.30
27188;DHT22;14708;50.872;5.306;2023-08-12T09:58:25;24.50;76.00
27188;DHT22;14708;50.872;5.306;2023-08-12T10:00:53;24.50;76.20
27188;DHT22;14708;50.872;5.306;2023-08-12T10:03:20;24.50;76.10
27188;DHT22;14708;50.872;5.306;2023-08-12T10:05:47;24.50;76.10
27188;DHT22;14708;50.872;5.306;2023-08-12T10:08:14;24.40;75.90
27188;DHT22;14708;50.872;5.306;2023-08-12T10:10:40;24.50;76.00
27188;DHT22;14708;50.872;5.306;2023-08-12T10:13:06;24.50;76.20
27188;DHT22;14708;50.872;5.306;2023-08-12T10:15:34;24.40;76.00
27188;DHT22;14708;50.872;5.306;2023-08-12T10:17:59;24.50;76.40
27188;DHT22;14708;50.872;5.306;2023-08-12T10:20:25;24.50;76.10
27188;DHT22;14708;50.872;5.306;2023-08-12T10:22:53;24.50;76.10
27188;DHT22;14708;50.872;5.306;2023-08-12T10:25:20;24.50;75.60
27188;DHT22;14708;50.872;5.306;2023-08-12T10:27:49;24.50;75.30
27188;DHT22;14708;50.872;5.306;2023-08-12T10:30:15;24.50;75.30
27188;DHT22;14708;50.872;5.306;2023-08-12T10:32:41;24.50;74.40
27188;DHT22;14708;50.872;5.306;2023-08-12T10:35:08;24.50;74.10
27188;DHT22;14708;50.872;5.306;2023-08-12T10:37:34;24.50;74.20
27188;DHT22;14708;50.872;5.306;2023-08-12T10:40:22;24.50;73.90
27188;DHT22;14708;50.872;5.306;2023-08-12T10:42:49;24.50;74.00
27188;DHT22;14708;50.872;5.306;2023-08-12T10:45:17;24.50;73.80
27188;DHT22;14708;50.872;5.306;2023-08-12T10:50:22;24.40;73.30
27188;DHT22;14708;50.872;5.306;2023-08-12T10:52:52;24.50;73.20
27188;DHT22;14708;50.872;5.306;2023-08-12T10:55:26;24.60;73.10
27188;DHT22;14708;50.872;5.306;2023-08-12T10:57:58;24.60;72.60
27188;DHT22;14708;50.872;5.306;2023-08-12T11:00:27;24.70;73.10
27188;DHT22;14708;50.872;5.306;2023-08-12T11:02:56;24.70;72.30
27188;DHT22;14708;50.872;5.306;2023-08-12T11:05:22;24.60;72.20
27188;DHT22;14708;50.872;5.306;2023-08-12T11:08:01;24.50;72.40
27188;DHT22;14708;50.872;5.306;2023-08-12T11:10:31;24.60;72.50
27188;DHT22;14708;50.872;5.306;2023-08-12T11:12:58;24.60;72.90
27188;DHT22;14708;50.872;5.306;2023-08-12T11:15:40;24.60;72.80
27188;DHT22;14708;50.872;5.306;2023-08-12T11:18:18;24.60;72.40
27188;DHT22;14708;50.872;5.306;2023-08-12T11:20:44;24.50;72.60
27188;DHT22;14708;50.872;5.306;2023-08-12T11:23:11;24.50;72.50
27188;DHT22;14708;50.872;5.306;2023-08-12T11:25:38;24.50;72.30
27188;DHT22;14708;50.872;5.306;2023-08-12T11:28:05;24.50;72.40
27188;DHT22;14708;50.872;5.306;2023-08-12T11:30:31;24.50;72.50
27188;DHT22;14708;50.872;5.306;2023-08-12T11:32:58;24.50;72.40
27188;DHT22;14708;50.872;5.306;2023-08-12T11:35:24;24.50;72.70
27188;DHT22;14708;50.872;5.306;2023-08-12T11:37:52;24.50;72.70
27188;DHT22;14708;50.872;5.306;2023-08-12T11:40:22;24.60;72.00
27188;DHT22;14708;50.872;5.306;2023-08-12T11:42:50;24.50;71.90
27188;DHT22;14708;50.872;5.306;2023-08-12T11:45:19;24.60;71.90
27188;DHT22;14708;50.872;5.306;2023-08-12T11:47:45;24.50;71.50
27188;DHT22;14708;50.872;5.306;2023-08-12T11:50:18;24.50;71.90
27188;DHT22;14708;50.872;5.306;2023-08-12T11:52:45;24.60;71.80
27188;DHT22;14708;50.872;5.306;2023-08-12T11:55:12;24.50;71.20
27188;DHT22;14708;50.872;5.306;2023-08-12T11:57:40;24.50;71.40
27188;DHT22;14708;50.872;5.306;2023-08-12T12:00:11;24.50;71.00
27188;DHT22;14708;50.872;5.306;2023-08-12T12:02:53;24.50;70.70
27188;DHT22;14708;50.872;5.306;2023-08-12T12:05:22;24.60;70.60
27188;DHT22;14708;50.872;5.306;2023-08-12T12:07:48;24.60;70.50
27188;DHT22;14708;50.872;5.306;2023-08-12T12:10:31;24.60;69.90
27188;DHT22;14708;50.872;5.306;2023-08-12T12:12:58;24.50;69.90
27188;DHT22;14708;50.872;5.306;2023-08-12T12:15:24;24.60;69.40
27188;DHT22;14708;50.872;5.306;2023-08-12T12:17:51;24.50;69.20
27188;DHT22;14708;50.872;5.306;2023-08-12T12:20:17;24.60;68.10
27188;DHT22;14708;50.872;5.306;2023-08-12T12:22:43;24.60;68.00
27188;DHT22;14708;50.872;5.306;2023-08-12T12:25:14;24.60;66.70
27188;DHT22;14708;50.872;5.306;2023-08-12T12:27:42;24.60;66.30
27188;DHT22;14708;50.872;5.306;2023-08-12T12:30:08;24.50;66.50
27188;DHT22;14708;50.872;5.306;2023-08-12T12:32:34;24.60;66.80
27188;DHT22;14708;50.872;5.306;2023-08-12T12:35:00;24.60;66.10
27188;DHT22;14708;50.872;5.306;2023-08-12T12:37:26;24.60;66.40
27188;DHT22;14708;50.872;5.306;2023-08-12T12:39:52;24.70;66.90
27188;DHT22;14708;50.872;5.306;2023-08-12T12:42:18;24.60;66.90
27188;DHT22;14708;50.872;5.306;2023-08-12T12:44:44;24.60;67.20
27188;DHT22;14708;50.872;5.306;2023-08-12T12:47:10;24.60;66.80
27188;DHT22;14708;50.872;5.306;2023-08-12T12:49:41;24.60;66.60
27188;DHT22;14708;50.872;5.306;2023-08-12T12:52:09;24.60;66.60
27188;DHT22;14708;50.872;5.306;2023-08-12T12:54:35;24.60;66.70
27188;DHT22;14708;50.872;5.306;2023-08-12T12:57:01;24.60;66.30
27188;DHT22;14708;50.872;5.306;2023-08-12T12:59:27;24.60;66.40
27188;DHT22;14708;50.872;5.306;2023-08-12T13:01:53;24.60;65.90
27188;DHT22;14708;50.872;5.306;2023-08-12T13:04:19;24.70;66.10
27188;DHT22;14708;50.872;5.306;2023-08-12T13:06:45;24.60;65.90
27188;DHT22;14708;50.872;5.306;2023-08-12T13:09:10;24.70;65.90
27188;DHT22;14708;50.872;5.306;2023-08-12T13:11:36;24.70;66.40
27188;DHT22;14708;50.872;5.306;2023-08-12T13:14:02;24.70;65.90
27188;DHT22;14708;50.872;5.306;2023-08-12T13:16:28;24.70;65.90
27188;DHT22;14708;50.872;5.306;2023-08-12T13:18:54;24.70;65.60
27188;DHT22;14708;50.872;5.306;2023-08-12T13:21:20;24.70;65.60
27188;DHT22;14708;50.872;5.306;2023-08-12T13:23:45;24.70;64.70
27188;DHT22;14708;50.872;5.306;2023-08-12T13:26:11;24.70;65.30
27188;DHT22;14708;50.872;5.306;2023-08-12T13:28:37;24.70;65.20
27188;DHT22;14708;50.872;5.306;2023-08-12T13:31:02;24.70;65.20
27188;DHT22;14708;50.872;5.306;2023-08-12T13:33:28;24.70;65.00
27188;DHT22;14708;50.872;5.306;2023-08-12T13:35:54;24.70;65.00
27188;DHT22;14708;50.872;5.306;2023-08-12T13:38:19;24.70;65.10
27188;DHT22;14708;50.872;5.306;2023-08-12T13:40:46;24.70;64.10
27188;DHT22;14708;50.872;5.306;2023-08-12T13:43:11;24.70;64.10
27188;DHT22;14708;50.872;5.306;2023-08-12T13:45:37;24.70;64.70
27188;DHT22;14708;50.872;5.306;2023-08-12T13:48:03;24.70;64.80
27188;DHT22;14708;50.872;5.306;2023-08-12T13:50:28;24.70;64.40
27188;DHT22;14708;50.872;5.306;2023-08-12T13:52:54;24.70;64.40
27188;DHT22;14708;50.872;5.306;2023-08-12T13:55:20;24.70;64.20
27188;DHT22;14708;50.872;5.306;2023-08-12T13:57:45;24.70;63.90
27188;DHT22;14708;50.872;5.306;2023-08-12T14:00:11;24.80;63.80
27188;DHT22;14708;50.872;5.306;2023-08-12T14:02:39;24.80;63.60
27188;DHT22;14708;50.872;5.306;2023-08-12T14:05:06;24.80;63.70
27188;DHT22;14708;50.872;5.306;2023-08-12T14:07:32;24.80;63.70
27188;DHT22;14708;50.872;5.306;2023-08-12T14:09:58;24.70;63.60
27188;DHT22;14708;50.872;5.306;2023-08-12T14:12:24;24.80;63.50
27188;DHT22;14708;50.872;5.306;2023-08-12T14:14:50;24.80;63.40
27188;DHT22;14708;50.872;5.306;2023-08-12T14:17:16;24.70;63.70
27188;DHT22;14708;50.872;5.306;2023-08-12T14:19:44;24.80;63.40
27188;DHT22;14708;50.872;5.306;2023-08-12T14:22:10;24.80;63.40
27188;DHT22;14708;50.872;5.306;2023-08-12T14:24:36;24.80;63.50
27188;DHT22;14708;50.872;5.306;2023-08-12T14:27:02;24.80;63.40
27188;DHT22;14708;50.872;5.306;2023-08-12T14:29:28;24.90;63.50
27188;DHT22;14708;50.872;5.306;2023-08-12T14:31:53;25.10;63.40
27188;DHT22;14708;50.872;5.306;2023-08-12T14:34:19;25.10;63.60
27188;DHT22;14708;50.872;5.306;2023-08-12T14:36:45;25.10;63.40
27188;DHT22;14708;50.872;5.306;2023-08-12T14:39:10;25.10;63.30
27188;DHT22;14708;50.872;5.306;2023-08-12T14:41:36;25.10;63.90
27188;DHT22;14708;50.872;5.306;2023-08-12T14:44:02;25.20;63.70
27188;DHT22;14708;50.872;5.306;2023-08-12T14:46:28;25.20;63.80
27188;DHT22;14708;50.872;5.306;2023-08-12T14:48:54;25.20;63.70
27188;DHT22;14708;50.872;5.306;2023-08-12T14:51:22;25.20;63.50
27188;DHT22;14708;50.872;5.306;2023-08-12T14:53:47;25.20;63.60
27188;DHT22;14708;50.872;5.306;2023-08-12T14:56:14;25.20;63.80
27188;DHT22;14708;50.872;5.306;2023-08-12T14:58:40;25.20;63.70
27188;DHT22;14708;50.872;5.306;2023-08-12T15:01:05;25.10;63.70
27188;DHT22;14708;50.872;5.306;2023-08-12T15:03:32;25.10;63.80
27188;DHT22;14708;50.872;5.306;2023-08-12T15:06:04;25.20;63.80
27188;DHT22;14708;50.872;5.306;2023-08-12T15:08:31;25.20;63.90
27188;DHT22;14708;50.872;5.306;2023-08-12T15:10:57;25.20;64.10
27188;DHT22;14708;50.872;5.306;2023-08-12T15:13:23;25.10;64.00
27188;DHT22;14708;50.872;5.306;2023-08-12T15:15:49;25.20;63.90
27188;DHT22;14708;50.872;5.306;2023-08-12T15:18:18;25.20;63.50
27188;DHT22;14708;50.872;5.306;2023-08-12T15:20:45;25.20;63.40
27188;DHT22;14708;50.872;5.306;2023-08-12T15:23:11;25.10;63.60
27188;DHT22;14708;50.872;5.306;2023-08-12T15:25:36;25.20;63.00
27188;DHT22;14708;50.872;5.306;2023-08-12T15:28:02;25.20;63.80